Time;durP1;ratioP1;P1;durP2;ratioP2;P2;SDS_P1;SDS_P2;PMS_P1;PMS_P2;Temp;Humidity;BMP_temperature;BMP_pressure;BME280_temperature;BME280_humidity;BME280_pressure;Samples;Min_cycle;Max_cycle;Signal;HPM_P1;HPM_P2
2023/11/17 00:00:12;;;;;;;63.87;34.90;;;;;7.20;101096.00;;;;10319976;28;20834;-74
2023/11/17 00:05:14;;;;;;;65.40;35.97;;;;;7.30;101109.00;;;;10316996;28;20224;-75
2023/11/17 00:10:16;;;;;;;54.30;32.97;;;;;7.30;101110.00;;;;10324872;28;20220;-75
2023/11/17 00:15:18;;;;;;;61.20;34.00;;;;;7.30;101127.00;;;;10302397;28;20303;-75
2023/11/17 00:20:20;;;;;;;58.87;35.57;;;;;7.30;101125.00;;;;10300101;28;20745;-75
2023/11/17 00:25:21;;;;;;;59.80;33.97;;;;;7.30;101127.00;;;;10335296;28;20315;-74
2023/11/17 00:30:23;;;;;;;62.97;34.03;;;;;7.20;101135.00;;;;10307833;28;20231;-75
2023/11/17 00:35:25;;;;;;;55.33;32.93;;;;;7.20;101130.00;;;;10317534;28;20231;-74
2023/11/17 00:40:26;;;;;;;64.27;33.67;;;;;7.20;101131.00;;;;10323496;28;20228;-75
2023/11/17 00:45:27;;;;;;;56.03;33.20;;;;;7.20;101144.00;;;;10319411;28;20282;-74
2023/11/17 00:50:29;;;;;;;60.00;33.23;;;;;7.20;101142.00;;;;10311098;28;20940;-74
2023/11/17 00:55:31;;;;;;;59.93;34.43;;;;;7.10;101147.00;;;;10301738;28;20224;-78
2023/11/17 01:00:33;;;;;;;68.53;35.50;;;;;7.10;101145.00;;;;10311844;28;20227;-78
2023/11/17 01:05:34;;;;;;;58.50;34.20;;;;;7.10;101162.00;;;;10309670;28;20236;-79
2023/11/17 01:10:36;;;;;;;60.30;34.17;;;;;7.10;101160.00;;;;10306085;28;20231;-79
2023/11/17 01:15:37;;;;;;;59.80;34.50;;;;;7.00;101156.00;;;;10318851;28;20251;-79
2023/11/17 01:20:41;;;;;;;66.70;34.90;;;;;6.90;101157.00;;;;10322078;28;20728;-79
2023/11/17 01:25:42;;;;;;;64.93;34.47;;;;;6.90;101164.00;;;;10286526;28;20241;-79
2023/11/17 01:30:43;;;;;;;57.33;33.87;;;;;6.80;101176.00;;;;10284545;28;20231;-79
2023/11/17 01:35:44;;;;;;;64.43;34.07;;;;;6.80;101176.00;;;;10317349;28;20763;-79
2023/11/17 01:40:46;;;;;;;64.87;35.40;;;;;6.80;101169.00;;;;10313175;28;20220;-78
2023/11/17 01:45:47;;;;;;;60.17;33.73;;;;;6.80;101167.00;;;;10277306;28;20259;-79
2023/11/17 01:50:48;;;;;;;67.13;37.03;;;;;6.70;101172.00;;;;10303286;28;20251;-78
2023/11/17 01:55:49;;;;;;;59.60;34.23;;;;;6.70;101178.00;;;;10318368;28;20227;-78
2023/11/17 02:00:53;;;;;;;72.13;34.93;;;;;6.70;101177.00;;;;10301965;28;20224;-78
2023/11/17 02:06:04;;;;;;;65.43;34.17;;;;;6.70;101180.00;;;;10303868;28;20310;-72
2023/11/17 02:11:18;;;;;;;69.13;35.10;;;;;6.70;101166.00;;;;10292751;28;20253;-72
2023/11/17 02:16:24;;;;;;;60.13;35.53;;;;;6.80;101167.00;;;;10318950;28;20262;-72
2023/11/17 02:21:31;;;;;;;67.70;34.60;;;;;6.80;101168.00;;;;10307317;28;20881;-71
2023/11/17 02:26:43;;;;;;;72.50;36.93;;;;;6.90;101170.00;;;;10296429;28;21799;-72
2023/11/17 02:31:45;;;;;;;74.30;36.63;;;;;7.00;101162.00;;;;10311836;28;20236;-72
2023/11/17 02:36:48;;;;;;;73.80;37.37;;;;;7.00;101164.00;;;;10310957;28;20694;-72
2023/11/17 02:41:56;;;;;;;70.50;35.20;;;;;7.10;101171.00;;;;10320062;28;20780;-73
2023/11/17 02:46:59;;;;;;;69.70;34.60;;;;;7.10;101155.00;;;;10302578;28;20220;-73
2023/11/17 02:52:47;;;;;;;76.97;34.00;;;;;7.20;101153.00;;;;10297027;28;20219;-73
2023/11/17 02:57:53;;;;;;;70.73;32.27;;;;;7.20;101153.00;;;;10298303;28;20370;-73
2023/11/17 03:02:57;;;;;;;59.20;29.50;;;;;7.10;101151.00;;;;10317076;28;20662;-73
2023/11/17 03:08:00;;;;;;;63.20;29.90;;;;;7.10;101143.00;;;;10311489;28;20228;-73
2023/11/17 03:13:01;;;;;;;59.63;30.57;;;;;7.10;101132.00;;;;10314595;28;20224;-72
2023/11/17 03:18:09;;;;;;;60.03;29.47;;;;;7.10;101142.00;;;;10314279;28;20219;-78
2023/11/17 03:23:10;;;;;;;59.50;30.70;;;;;7.10;101129.00;;;;10318880;28;20236;-76
2023/11/17 03:28:13;;;;;;;53.57;29.30;;;;;7.10;101126.00;;;;10305328;28;20314;-77
2023/11/17 03:33:14;;;;;;;51.33;27.57;;;;;7.00;101110.00;;;;10295579;28;20336;-75
2023/11/17 03:38:15;;;;;;;59.63;28.30;;;;;7.00;101109.00;;;;10316301;28;20227;-77
2023/11/17 03:43:18;;;;;;;55.33;28.50;;;;;6.90;101108.00;;;;10317662;28;20307;-77
2023/11/17 03:48:25;;;;;;;55.80;28.63;;;;;6.90;101111.00;;;;10310730;28;20326;-76
2023/11/17 03:53:26;;;;;;;63.97;30.17;;;;;6.90;101100.00;;;;10307254;28;20314;-76
2023/11/17 03:58:27;;;;;;;65.30;29.77;;;;;6.90;101113.00;;;;10312955;28;20216;-76
2023/11/17 04:03:29;;;;;;;61.33;27.70;;;;;7.00;101105.00;;;;10313397;28;20235;-76
2023/11/17 04:08:30;;;;;;;58.43;26.70;;;;;7.00;101087.00;;;;10278383;28;20758;-75
2023/11/17 04:13:35;;;;;;;61.20;28.63;;;;;7.10;101079.00;;;;10302648;28;20243;-77
2023/11/17 04:18:39;;;;;;;53.83;26.90;;;;;7.10;101088.00;;;;10322453;28;20259;-75
2023/11/17 04:23:40;;;;;;;52.23;24.13;;;;;7.10;101073.00;;;;10294347;28;20793;-78
2023/11/17 04:28:43;;;;;;;45.43;23.60;;;;;7.20;101074.00;;;;10307439;28;20259;-72
2023/11/17 04:33:45;;;;;;;46.90;22.80;;;;;7.20;101073.00;;;;10286084;28;20290;-73
2023/11/17 04:38:46;;;;;;;39.23;21.13;;;;;7.20;101077.00;;;;10292168;28;20228;-73
2023/11/17 04:43:47;;;;;;;33.93;20.10;;;;;7.30;101071.00;;;;10311545;28;20231;-72
2023/11/17 04:48:50;;;;;;;37.93;21.47;;;;;7.30;101070.00;;;;10306314;28;20240;-73
2023/11/17 04:53:51;;;;;;;30.83;17.83;;;;;7.30;101065.00;;;;10311640;28;20227;-73
2023/11/17 04:58:53;;;;;;;29.97;19.23;;;;;7.30;101082.00;;;;10319527;28;20222;-73
2023/11/17 05:03:54;;;;;;;30.13;19.43;;;;;7.30;101067.00;;;;10314798;28;20315;-73
2023/11/17 05:08:55;;;;;;;30.00;19.13;;;;;7.30;101079.00;;;;10300443;28;20231;-73
2023/11/17 05:13:58;;;;;;;29.23;19.03;;;;;7.30;101088.00;;;;10307977;28;20234;-73
2023/11/17 05:18:59;;;;;;;33.93;20.80;;;;;7.30;101078.00;;;;10307992;28;20240;-73
2023/11/17 05:24:05;;;;;;;34.70;19.47;;;;;7.30;101090.00;;;;10299593;28;20228;-73
2023/11/17 05:29:06;;;;;;;38.70;21.93;;;;;7.30;101099.00;;;;10301238;28;20224;-72
2023/11/17 05:34:09;;;;;;;38.93;23.90;;;;;7.30;101109.00;;;;10293363;28;20259;-73
2023/11/17 05:39:11;;;;;;;40.60;25.97;;;;;7.30;101107.00;;;;10275763;28;20252;-73
2023/11/17 05:44:13;;;;;;;44.63;28.13;;;;;7.30;101112.00;;;;10284559;28;20216;-73
2023/11/17 05:49:15;;;;;;;44.53;28.60;;;;;7.40;101121.00;;;;10308309;28;20224;-73
2023/11/17 05:54:16;;;;;;;47.43;28.10;;;;;7.30;101122.00;;;;10309199;28;20234;-73
2023/11/17 05:59:18;;;;;;;46.10;28.17;;;;;7.30;101141.00;;;;10303546;28;20216;-73
2023/11/17 06:04:19;;;;;;;41.17;26.20;;;;;7.30;101147.00;;;;10303305;28;20298;-73
2023/11/17 06:09:20;;;;;;;49.13;30.07;;;;;7.30;101158.00;;;;10311002;28;20227;-73
2023/11/17 06:14:27;;;;;;;46.30;27.93;;;;;7.30;101172.00;;;;10305310;28;20307;-73
2023/11/17 06:19:28;;;;;;;46.43;27.57;;;;;7.30;101186.00;;;;10315285;28;20278;-73
2023/11/17 06:24:30;;;;;;;44.17;28.70;;;;;7.30;101183.00;;;;10304281;28;20224;-73
2023/11/17 06:29:31;;;;;;;44.40;26.53;;;;;7.20;101195.00;;;;10307294;28;20594;-73
2023/11/17 06:34:32;;;;;;;40.10;23.73;;;;;7.20;101206.00;;;;10306426;28;20706;-73
2023/11/17 06:39:34;;;;;;;41.70;26.40;;;;;7.20;101217.00;;;;10312389;28;20228;-73
2023/11/17 06:44:36;;;;;;;44.70;26.10;;;;;7.20;101225.00;;;;10310039;28;20302;-76
2023/11/17 06:49:37;;;;;;;46.60;26.20;;;;;7.10;101231.00;;;;10311680;28;20228;-76
2023/11/17 06:54:38;;;;;;;45.40;26.27;;;;;7.10;101230.00;;;;10309453;28;20299;-76
2023/11/17 06:59:40;;;;;;;53.53;29.33;;;;;7.10;101235.00;;;;10310095;28;20311;-76
2023/11/17 07:04:42;;;;;;;58.93;30.17;;;;;7.00;101243.00;;;;10318067;28;20258;-76
2023/11/17 07:09:43;;;;;;;59.80;30.67;;;;;7.00;101257.00;;;;10312935;28;20224;-76
2023/11/17 07:14:45;;;;;;;56.20;31.20;;;;;7.00;101252.00;;;;10307007;28;20303;-76
2023/11/17 07:19:46;;;;;;;60.57;31.27;;;;;7.00;101264.00;;;;10311366;28;20228;-76
2023/11/17 07:24:47;;;;;;;60.47;33.30;;;;;7.00;101271.00;;;;10315165;28;20229;-76
2023/11/17 07:29:48;;;;;;;53.57;32.23;;;;;7.00;101278.00;;;;10324324;28;20262;-76
2023/11/17 07:34:50;;;;;;;53.13;30.07;;;;;7.10;101279.00;;;;10283259;28;20227;-76
2023/11/17 07:39:51;;;;;;;50.77;29.43;;;;;7.20;101288.00;;;;10318701;28;20243;-76
2023/11/17 07:44:52;;;;;;;51.20;27.40;;;;;7.20;101300.00;;;;10316472;28;20212;-76
2023/11/17 07:49:54;;;;;;;47.07;26.00;;;;;7.20;101303.00;;;;10303994;28;20594;-76
2023/11/17 07:54:56;;;;;;;41.80;26.37;;;;;7.20;101310.00;;;;10313776;28;20646;-74
2023/11/17 07:59:57;;;;;;;47.73;26.07;;;;;7.20;101318.00;;;;10318687;28;20232;-74
2023/11/17 08:04:59;;;;;;;43.13;23.97;;;;;7.30;101321.00;;;;10320131;28;20302;-74
2023/11/17 08:10:00;;;;;;;44.50;25.90;;;;;7.30;101317.00;;;;10316682;28;20224;-74
2023/11/17 08:15:02;;;;;;;40.67;24.07;;;;;7.40;101320.00;;;;10316969;28;20239;-74
2023/11/17 08:20:13;;;;;;;42.17;22.03;;;;;7.40;101327.00;;;;10317659;28;20219;-74
2023/11/17 08:25:16;;;;;;;44.23;24.10;;;;;7.80;101325.00;;;;10320148;28;20244;-75
2023/11/17 08:30:17;;;;;;;45.63;22.37;;;;;8.10;101332.00;;;;10320960;28;20231;-74
2023/11/17 08:35:21;;;;;;;42.63;23.10;;;;;8.40;101328.00;;;;10308416;28;20274;-74
2023/11/17 08:40:22;;;;;;;35.77;21.77;;;;;8.90;101330.00;;;;10317235;28;20247;-74
2023/11/17 08:45:24;;;;;;;26.57;17.53;;;;;8.80;101343.00;;;;10312526;28;20224;-74
2023/11/17 08:50:25;;;;;;;25.67;16.70;;;;;8.60;101348.00;;;;10311997;28;20898;-73
2023/11/17 08:55:27;;;;;;;29.23;18.27;;;;;8.50;101369.00;;;;10308704;28;20251;-74
2023/11/17 09:00:30;;;;;;;33.43;18.87;;;;;8.40;101375.00;;;;10295235;28;20691;-74
2023/11/17 09:05:31;;;;;;;33.10;21.37;;;;;8.30;101373.00;;;;10311637;28;20251;-74
2023/11/17 09:10:32;;;;;;;35.93;22.17;;;;;8.20;101374.00;;;;10308979;28;20224;-73
2023/11/17 09:15:33;;;;;;;41.03;23.30;;;;;8.10;101384.00;;;;10313035;28;20251;-73
2023/11/17 09:20:36;;;;;;;50.37;25.27;;;;;8.00;101401.00;;;;10318610;28;20299;-73
2023/11/17 09:25:37;;;;;;;43.80;23.60;;;;;8.00;101400.00;;;;10311682;28;20669;-73
2023/11/17 09:30:39;;;;;;;44.10;24.13;;;;;8.00;101403.00;;;;10314135;28;20220;-73
2023/11/17 09:35:41;;;;;;;48.67;25.00;;;;;8.20;101411.00;;;;10309159;28;20307;-73
2023/11/17 09:40:43;;;;;;;47.77;26.70;;;;;8.40;101394.00;;;;10314658;28;20314;-74
2023/11/17 09:45:45;;;;;;;53.30;26.47;;;;;8.60;101405.00;;;;10316168;28;20281;-73
2023/11/17 09:50:50;;;;;;;50.77;27.33;;;;;8.60;101417.00;;;;10314832;28;20225;-73
2023/11/17 09:55:53;;;;;;;57.20;27.67;;;;;8.50;101428.00;;;;10314965;28;20247;-73
2023/11/17 10:00:56;;;;;;;55.67;27.20;;;;;8.40;101423.00;;;;10308585;28;20310;-73
2023/11/17 10:06:04;;;;;;;61.90;29.83;;;;;8.30;101421.00;;;;10309633;28;20318;-73
2023/11/17 10:11:06;;;;;;;60.17;29.37;;;;;8.30;101442.00;;;;10300938;28;20845;-73
2023/11/17 10:16:08;;;;;;;57.63;27.80;;;;;8.40;101433.00;;;;10317444;28;20215;-75
2023/11/17 10:21:10;;;;;;;60.57;29.20;;;;;8.60;101446.00;;;;10326258;28;20224;-76
2023/11/17 10:26:12;;;;;;;58.60;29.30;;;;;8.50;101444.00;;;;10314276;28;20311;-76
2023/11/17 10:31:16;;;;;;;61.30;28.90;;;;;8.40;101443.00;;;;10318930;28;20685;-76
2023/11/17 10:36:19;;;;;;;56.07;30.00;;;;;8.50;101449.00;;;;10286705;28;20235;-76
2023/11/17 10:41:33;;;;;;;58.63;29.23;;;;;8.60;101450.00;;;;10298932;28;20250;-76
2023/11/17 10:46:44;;;;;;;61.43;29.63;;;;;8.70;101454.00;;;;10314748;28;20754;-76
2023/11/17 10:51:47;;;;;;;55.37;28.23;;;;;8.70;101454.00;;;;10309441;28;20211;-76
2023/11/17 10:56:49;;;;;;;51.20;27.00;;;;;8.40;101464.00;;;;10308690;28;20220;-76
2023/11/17 11:01:51;;;;;;;49.40;26.73;;;;;8.30;101456.00;;;;10318090;28;20227;-77
2023/11/17 11:06:56;;;;;;;57.40;29.50;;;;;8.40;101449.00;;;;10319878;28;20220;-76
2023/11/17 11:11:58;;;;;;;44.33;20.93;;;;;8.50;101464.00;;;;10309083;28;20228;-76
2023/11/17 11:17:00;;;;;;;31.33;16.30;;;;;8.70;101465.00;;;;10305853;28;20502;-75
2023/11/17 11:22:04;;;;;;;35.07;17.47;;;;;9.00;101451.00;;;;10327897;28;20226;-74
2023/11/17 11:27:07;;;;;;;38.30;18.30;;;;;9.40;101446.00;;;;10328446;28;20223;-73
2023/11/17 11:32:11;;;;;;;35.57;17.63;;;;;9.50;101449.00;;;;10318765;28;20250;-73
2023/11/17 11:37:12;;;;;;;32.77;17.43;;;;;9.60;101473.00;;;;10318988;28;20228;-74
2023/11/17 11:42:14;;;;;;;34.67;18.87;;;;;9.90;101448.00;;;;10325342;28;20223;-73
2023/11/17 11:47:16;;;;;;;33.27;15.53;;;;;9.90;101460.00;;;;10315952;28;20680;-74
2023/11/17 11:52:25;;;;;;;32.43;17.03;;;;;9.90;101457.00;;;;10321017;28;20835;-73
2023/11/17 11:57:29;;;;;;;31.90;18.60;;;;;10.00;101493.00;;;;10319167;28;20212;-73
2023/11/17 12:02:31;;;;;;;33.47;20.03;;;;;10.10;101489.00;;;;10320559;28;20251;-73
2023/11/17 12:07:34;;;;;;;29.83;17.33;;;;;10.00;101479.00;;;;10305552;28;20224;-74
2023/11/17 12:12:35;;;;;;;28.17;17.00;;;;;9.80;101489.00;;;;10304810;28;20213;-73
2023/11/17 12:17:43;;;;;;;28.20;17.27;;;;;9.80;101488.00;;;;10311496;28;20775;-73
2023/11/17 12:23:03;;;;;;;28.70;18.70;;;;;9.80;101491.00;;;;10317892;28;20765;-73
2023/11/17 12:28:05;;;;;;;20.00;13.73;;;;;9.80;101506.00;;;;10327983;28;20311;-74
2023/11/17 12:33:07;;;;;;;24.30;12.80;;;;;9.80;101493.00;;;;10307940;28;20278;-73
2023/11/17 12:38:14;;;;;;;21.53;12.93;;;;;10.20;101502.00;;;;10316310;28;20226;-78
2023/11/17 12:43:15;;;;;;;24.93;15.00;;;;;10.40;101503.00;;;;10336521;28;20215;-78
2023/11/17 12:48:17;;;;;;;27.40;15.83;;;;;10.70;101502.00;;;;10316563;28;20231;-78
2023/11/17 12:53:18;;;;;;;24.87;14.57;;;;;10.70;101497.00;;;;10326676;28;20276;-78
2023/11/17 12:58:21;;;;;;;20.60;12.40;;;;;10.60;101501.00;;;;10314119;28;20241;-78
2023/11/17 13:03:22;;;;;;;19.00;12.20;;;;;10.60;101511.00;;;;10312114;28;20220;-78
2023/11/17 13:08:24;;;;;;;14.40;10.50;;;;;10.50;101509.00;;;;10315968;28;20231;-78
2023/11/17 13:13:26;;;;;;;17.03;9.17;;;;;10.30;101526.00;;;;10321756;28;20240;-78
2023/11/17 13:18:29;;;;;;;14.13;9.70;;;;;10.10;101508.00;;;;10332016;28;20215;-79
2023/11/17 13:23:31;;;;;;;17.10;10.17;;;;;10.10;101503.00;;;;10314651;28;20220;-79
2023/11/17 13:28:38;;;;;;;19.00;10.17;;;;;10.30;101516.00;;;;10321807;28;20227;-78
2023/11/17 13:33:41;;;;;;;18.57;11.03;;;;;10.20;101523.00;;;;10307718;28;20223;-79
2023/11/17 13:38:53;;;;;;;22.90;13.00;;;;;10.30;101508.00;;;;10314147;28;20622;-79
2023/11/17 13:43:57;;;;;;;18.33;12.10;;;;;10.50;101510.00;;;;10312729;28;20216;-76
2023/11/17 13:49:03;;;;;;;18.07;11.83;;;;;10.70;101519.00;;;;10307320;28;20766;-77
2023/11/17 13:54:07;;;;;;;26.47;18.50;;;;;11.10;101530.00;;;;10323085;28;20227;-77
2023/11/17 13:59:18;;;;;;;14.53;9.93;;;;;10.90;101533.00;;;;10308754;28;20279;-76
2023/11/17 14:04:20;;;;;;;13.47;9.47;;;;;10.60;101521.00;;;;10319403;28;20216;-76
2023/11/17 14:09:23;;;;;;;11.10;7.00;;;;;10.20;101534.00;;;;10294755;28;20232;-76
2023/11/17 14:14:26;;;;;;;14.33;10.43;;;;;10.00;101552.00;;;;10312429;28;20250;-76
2023/11/17 14:19:28;;;;;;;14.20;8.80;;;;;9.90;101547.00;;;;10317026;28;20217;-76
2023/11/17 14:24:29;;;;;;;19.07;10.90;;;;;9.90;101560.00;;;;10314944;28;20274;-76
2023/11/17 14:29:35;;;;;;;19.57;11.90;;;;;9.90;101569.00;;;;10312219;28;20231;-76
2023/11/17 14:34:36;;;;;;;16.47;11.83;;;;;9.90;101572.00;;;;10324262;28;20301;-76
2023/11/17 14:39:37;;;;;;;13.93;10.53;;;;;9.80;101572.00;;;;10319453;28;20219;-77
2023/11/17 14:44:39;;;;;;;15.00;9.10;;;;;9.60;101577.00;;;;10318042;28;20250;-76
2023/11/17 14:49:40;;;;;;;16.47;9.47;;;;;9.60;101577.00;;;;10318303;28;20227;-76
2023/11/17 14:54:41;;;;;;;13.87;9.50;;;;;9.70;101595.00;;;;10316570;28;20231;-79
2023/11/17 14:59:45;;;;;;;19.23;11.80;;;;;9.60;101594.00;;;;10316968;28;20226;-79
2023/11/17 15:04:46;;;;;;;14.00;11.07;;;;;9.50;101597.00;;;;10334934;28;20825;-79
2023/11/17 15:09:47;;;;;;;14.97;9.17;;;;;9.30;101605.00;;;;10315514;28;20259;-79
2023/11/17 15:14:48;;;;;;;15.60;8.63;;;;;9.00;101623.00;;;;10323093;28;20263;-79
2023/11/17 15:19:50;;;;;;;11.30;8.30;;;;;8.90;101617.00;;;;10316828;28;20312;-79
2023/11/17 15:24:51;;;;;;;14.53;10.03;;;;;8.80;101626.00;;;;10314333;28;20226;-79
2023/11/17 15:29:56;;;;;;;14.10;8.63;;;;;8.80;101632.00;;;;10307854;28;20259;-79
2023/11/17 15:34:57;;;;;;;13.23;7.50;;;;;8.70;101640.00;;;;10321448;28;20211;-79
2023/11/17 15:39:58;;;;;;;14.23;8.80;;;;;8.60;101622.00;;;;10308720;28;20800;-77
2023/11/17 15:45:06;;;;;;;12.70;7.63;;;;;8.40;101630.00;;;;10326350;28;20258;-80
2023/11/17 15:50:12;;;;;;;11.37;7.60;;;;;8.20;101635.00;;;;10317472;28;20447;-80
2023/11/17 15:55:15;;;;;;;12.17;6.73;;;;;8.10;101633.00;;;;10320902;28;20219;-78
2023/11/17 16:00:24;;;;;;;10.23;5.63;;;;;7.90;101627.00;;;;10321054;28;20224;-79
2023/11/17 16:05:25;;;;;;;10.33;5.43;;;;;7.60;101624.00;;;;10319642;28;20216;-74
2023/11/17 16:10:27;;;;;;;11.60;5.00;;;;;7.50;101626.00;;;;10310131;28;20278;-74
2023/11/17 16:15:28;;;;;;;6.33;4.80;;;;;7.30;101634.00;;;;10294289;28;20223;-74
2023/11/17 16:20:31;;;;;;;7.60;5.60;;;;;7.10;101639.00;;;;10314273;28;20220;-74
2023/11/17 16:25:32;;;;;;;9.30;5.67;;;;;6.90;101633.00;;;;10315924;28;20351;-74
2023/11/17 16:30:33;;;;;;;5.33;4.70;;;;;6.80;101626.00;;;;10316578;28;20227;-74
2023/11/17 16:35:36;;;;;;;8.30;5.30;;;;;6.70;101640.00;;;;10310475;28;20274;-74
2023/11/17 16:40:39;;;;;;;7.43;5.57;;;;;6.60;101636.00;;;;10311944;28;20238;-73
2023/11/17 16:45:41;;;;;;;27.17;14.10;;;;;6.50;101641.00;;;;10313728;28;20236;-74
2023/11/17 16:50:44;;;;;;;12.60;7.43;;;;;6.30;101647.00;;;;10311659;28;20238;-74
2023/11/17 16:55:47;;;;;;;12.10;6.10;;;;;6.20;101649.00;;;;10291261;28;20567;-74
2023/11/17 17:00:50;;;;;;;9.87;6.30;;;;;6.20;101650.00;;;;10312389;28;20219;-74
2023/11/17 17:05:52;;;;;;;9.60;6.13;;;;;6.10;101661.00;;;;10310160;28;20220;-74
2023/11/17 17:10:53;;;;;;;13.47;7.73;;;;;6.00;101669.00;;;;10312436;28;20228;-74
2023/11/17 17:15:54;;;;;;;10.90;7.60;;;;;6.00;101669.00;;;;10312447;28;20569;-72
2023/11/17 17:20:57;;;;;;;14.27;8.87;;;;;6.00;101678.00;;;;10320655;28;20255;-72
2023/11/17 17:25:58;;;;;;;13.30;9.77;;;;;6.00;101693.00;;;;10310926;28;20278;-72
2023/11/17 17:30:59;;;;;;;17.73;9.27;;;;;6.00;101691.00;;;;10335816;28;20726;-71
2023/11/17 17:36:01;;;;;;;13.43;8.87;;;;;5.90;101689.00;;;;10321718;28;20223;-73
2023/11/17 17:41:03;;;;;;;12.90;8.67;;;;;5.80;101704.00;;;;10325528;28;20302;-72
2023/11/17 17:46:05;;;;;;;10.20;7.77;;;;;5.70;101719.00;;;;10311541;28;20220;-72
2023/11/17 17:51:07;;;;;;;10.40;7.93;;;;;5.70;101717.00;;;;10310252;28;20667;-72
2023/11/17 17:56:08;;;;;;;16.67;9.90;;;;;5.60;101717.00;;;;10291946;28;20862;-71
2023/11/17 18:01:09;;;;;;;15.93;9.40;;;;;5.60;101713.00;;;;10307320;28;20696;-71
2023/11/17 18:06:14;;;;;;;10.67;7.60;;;;;5.60;101722.00;;;;10308589;28;20272;-72
2023/11/17 18:11:18;;;;;;;24.53;14.40;;;;;5.60;101732.00;;;;10305273;28;20252;-71
2023/11/17 18:16:21;;;;;;;16.00;10.90;;;;;5.50;101727.00;;;;10319887;28;20589;-71
2023/11/17 18:21:22;;;;;;;15.13;11.57;;;;;5.50;101722.00;;;;10306612;28;20284;-71
2023/11/17 18:26:24;;;;;;;18.87;14.97;;;;;5.40;101735.00;;;;10307208;28;20310;-75
2023/11/17 18:31:28;;;;;;;18.57;12.60;;;;;5.50;101739.00;;;;10291213;28;20274;-75
2023/11/17 18:36:29;;;;;;;15.20;10.13;;;;;5.40;101739.00;;;;10316028;28;20223;-76
2023/11/17 18:41:30;;;;;;;18.23;11.73;;;;;5.40;101750.00;;;;10311397;28;20247;-75
2023/11/17 18:46:31;;;;;;;16.47;10.87;;;;;5.30;101752.00;;;;10314454;28;20761;-75
2023/11/17 18:51:32;;;;;;;20.10;13.30;;;;;5.20;101753.00;;;;10309645;28;20226;-76
2023/11/17 18:56:34;;;;;;;19.20;10.73;;;;;5.20;101763.00;;;;10305596;28;20281;-76
2023/11/17 19:01:36;;;;;;;21.67;14.73;;;;;5.20;101771.00;;;;10318796;28;20299;-75
2023/11/17 19:06:37;;;;;;;20.40;12.10;;;;;5.20;101774.00;;;;10298599;28;20216;-75
2023/11/17 19:11:39;;;;;;;16.53;11.93;;;;;5.10;101763.00;;;;10310212;28;20224;-75
2023/11/17 19:16:42;;;;;;;18.40;13.70;;;;;5.10;101760.00;;;;10279578;28;20786;-75
2023/11/17 19:21:44;;;;;;;23.57;13.63;;;;;5.10;101767.00;;;;10317952;28;20243;-75
2023/11/17 19:27:06;;;;;;;21.33;13.80;;;;;5.10;101774.00;;;;10321516;28;20350;-76
2023/11/17 19:32:08;;;;;;;19.93;13.47;;;;;5.10;101773.00;;;;10300221;28;20243;-75
2023/11/17 19:37:12;;;;;;;19.80;14.20;;;;;5.00;101785.00;;;;10315942;28;20212;-71
2023/11/17 19:42:14;;;;;;;23.33;14.40;;;;;5.00;101788.00;;;;10315829;28;20278;-73
2023/11/17 19:47:15;;;;;;;21.23;14.57;;;;;5.00;101796.00;;;;10329259;28;20228;-73
2023/11/17 19:52:18;;;;;;;28.17;16.70;;;;;5.00;101803.00;;;;10309634;28;20224;-72
2023/11/17 19:57:19;;;;;;;28.67;17.87;;;;;5.00;101795.00;;;;10314956;28;20346;-72
2023/11/17 20:02:21;;;;;;;23.67;14.53;;;;;5.00;101805.00;;;;10320614;28;20232;-72
2023/11/17 20:07:22;;;;;;;25.43;17.77;;;;;4.90;101803.00;;;;10322173;28;20231;-72
2023/11/17 20:12:23;;;;;;;24.63;18.03;;;;;4.90;101804.00;;;;10302872;28;20265;-72
2023/11/17 20:17:24;;;;;;;27.90;17.03;;;;;4.90;101802.00;;;;10294966;28;20262;-71
2023/11/17 20:22:31;;;;;;;27.73;20.03;;;;;4.80;101820.00;;;;10311404;28;20224;-71
2023/11/17 20:27:33;;;;;;;31.77;20.13;;;;;4.80;101820.00;;;;10311308;28;20235;-72
2023/11/17 20:32:34;;;;;;;31.60;21.30;;;;;4.80;101823.00;;;;10314948;28;20303;-72
2023/11/17 20:37:36;;;;;;;34.83;22.10;;;;;4.70;101819.00;;;;10322300;28;20224;-72
2023/11/17 20:42:37;;;;;;;31.27;21.77;;;;;4.70;101824.00;;;;10315880;28;20658;-72
2023/11/17 20:47:39;;;;;;;36.50;23.27;;;;;4.70;101818.00;;;;10309652;28;20655;-72
2023/11/17 20:52:40;;;;;;;38.33;27.10;;;;;4.60;101815.00;;;;10313642;28;20317;-71
2023/11/17 20:57:43;;;;;;;35.80;24.73;;;;;4.70;101815.00;;;;10316388;28;20223;-72
2023/11/17 21:02:44;;;;;;;38.80;25.67;;;;;4.70;101824.00;;;;10322158;28;20231;-72
2023/11/17 21:07:47;;;;;;;37.73;25.07;;;;;4.60;101818.00;;;;10319214;28;20398;-72
2023/11/17 21:12:50;;;;;;;36.43;25.73;;;;;4.60;101826.00;;;;10318299;28;20585;-71
2023/11/17 21:17:52;;;;;;;35.83;23.90;;;;;4.80;101842.00;;;;10320450;28;20263;-72
2023/11/17 21:22:53;;;;;;;36.57;22.97;;;;;4.90;101840.00;;;;10334880;28;20258;-72
2023/11/17 21:27:55;;;;;;;36.10;26.00;;;;;4.90;101843.00;;;;10318810;28;20224;-72
2023/11/17 21:32:57;;;;;;;37.83;25.17;;;;;4.90;101840.00;;;;10322115;28;20278;-71
2023/11/17 21:37:58;;;;;;;39.13;25.10;;;;;4.90;101849.00;;;;10319778;28;20908;-71
2023/11/17 21:42:59;;;;;;;34.43;23.50;;;;;4.80;101852.00;;;;10307769;28;20220;-71
2023/11/17 21:48:04;;;;;;;36.17;24.43;;;;;4.80;101853.00;;;;10314822;28;20888;-73
2023/11/17 21:53:05;;;;;;;34.30;24.17;;;;;4.90;101847.00;;;;10316382;28;20223;-72
2023/11/17 21:58:07;;;;;;;36.80;24.63;;;;;4.80;101843.00;;;;10319731;28;20293;-75
2023/11/17 22:03:11;;;;;;;33.60;23.80;;;;;4.90;101862.00;;;;10302862;28;20339;-75
2023/11/17 22:08:13;;;;;;;30.57;21.07;;;;;4.90;101869.00;;;;10297053;28;20243;-75
2023/11/17 22:13:14;;;;;;;30.70;21.97;;;;;5.00;101875.00;;;;10308685;28;21034;-75
2023/11/17 22:18:15;;;;;;;32.07;22.00;;;;;5.00;101859.00;;;;10316161;28;20231;-75
2023/11/17 22:23:16;;;;;;;32.60;20.60;;;;;5.00;101869.00;;;;10315359;28;20214;-75
2023/11/17 22:28:18;;;;;;;35.03;20.20;;;;;5.00;101865.00;;;;10287808;28;20228;-75
2023/11/17 22:33:19;;;;;;;30.90;19.37;;;;;5.00;101851.00;;;;10307808;28;20294;-75
2023/11/17 22:38:21;;;;;;;31.43;18.00;;;;;5.10;101855.00;;;;10313606;28;20227;-75
2023/11/17 22:43:25;;;;;;;25.93;17.63;;;;;5.00;101848.00;;;;10303360;28;20274;-76
2023/11/17 22:48:27;;;;;;;26.67;18.33;;;;;5.00;101839.00;;;;10314285;28;20232;-75
2023/11/17 22:53:31;;;;;;;29.73;18.07;;;;;5.00;101838.00;;;;10292724;28;20224;-75
2023/11/17 22:58:32;;;;;;;29.67;18.20;;;;;4.90;101837.00;;;;10313968;28;20227;-75
2023/11/17 23:03:33;;;;;;;27.70;17.10;;;;;4.90;101840.00;;;;10323910;28;20273;-76
2023/11/17 23:08:35;;;;;;;27.83;15.37;;;;;4.90;101836.00;;;;10321101;28;20277;-75
2023/11/17 23:13:36;;;;;;;25.57;16.07;;;;;4.90;101828.00;;;;10315179;28;20223;-75
2023/11/17 23:18:37;;;;;;;26.00;16.90;;;;;4.90;101826.00;;;;10318994;28;20228;-75
2023/11/17 23:23:39;;;;;;;27.93;16.50;;;;;4.90;101828.00;;;;10318529;28;20307;-75
2023/11/17 23:28:40;;;;;;;28.60;14.60;;;;;4.90;101829.00;;;;10296793;28;20251;-76
2023/11/17 23:33:41;;;;;;;23.83;16.37;;;;;4.90;101838.00;;;;10304292;28;21033;-75
2023/11/17 23:38:42;;;;;;;24.80;15.90;;;;;4.90;101822.00;;;;10308005;28;20949;-75
2023/11/17 23:43:46;;;;;;;28.13;16.43;;;;;5.00;101836.00;;;;10319276;28;20934;-75
2023/11/17 23:48:48;;;;;;;26.17;17.13;;;;;5.00;101827.00;;;;10330022;28;20228;-75
2023/11/17 23:53:49;;;;;;;26.43;17.43;;;;;5.10;101831.00;;;;10308914;28;20212;-75
2023/11/17 23:58:51;;;;;;;30.50;18.07;;;;;5.20;101837.00;;;;10299844;28;20300;-75
